EDT,Max TemperatureF,Mean TemperatureF,Min TemperatureF,Max Dew PointF,MeanDew PointF,Min DewpointF,Max Humidity, Mean Humidity, Min Humidity, Max Sea Level PressureIn, Mean Sea Level PressureIn, Min Sea Level PressureIn, Max VisibilityMiles, Mean VisibilityMiles, Min VisibilityMiles, Max Wind SpeedMPH, Mean Wind SpeedMPH, Max Gust SpeedMPH,PrecipitationIn, CloudCover, Events, WindDirDegrees
2013-9-1,82,74,68,70,67,64,90,77,65,29.84,29.80,29.76,10,9,4,10,5,,0.00,4,,221
2013-9-2,82,73,62,70,65,55,94,82,43,29.91,29.83,29.76,10,5,0,12,4,17,0.02,5,Fog-Rain,266
2013-9-3,75,66,59,58,53,49,83,69,50,30.06,30.01,29.92,10,10,10,9,6,,0.00,4,,338
2013-9-4,82,68,54,57,54,50,90,67,37,30.14,30.10,30.06,10,10,7,13,6,20,0.01,0,,237
2013-9-5,79,66,54,59,49,36,87,61,23,30.24,30.18,30.11,10,10,10,9,4,16,0.00,0,,20
2013-9-6,79,64,48,52,46,40,86,59,25,30.28,30.21,30.11,10,10,10,7,4,,0.00,0,,110
2013-9-7,87,70,55,69,57,45,85,60,41,30.09,30.01,29.94,10,10,2,14,7,18,0.03,2,Rain,219
2013-9-8,77,68,62,67,62,54,90,77,68,30.05,30.01,29.94,10,7,2,12,5,,0.00,4,,59
2013-9-9,91,75,60,67,62,54,86,65,40,30.04,29.99,29.93,10,10,8,10,7,20,0.00,2,Rain,170
2013-9-10,99,86,75,71,67,61,82,58,29,30.09,30.04,29.97,10,8,2,31,11,48,0.19,2,Rain-Thunderstorm,213
2013-9-11,96,84,73,71,64,58,79,58,29,30.12,30.04,29.97,10,9,7,14,7,23,0.00,1,,219
2013-9-12,81,71,61,68,63,51,90,78,36,29.98,29.94,29.83,10,7,1,14,6,21,0.79,6,Rain-Thunderstorm,277
2013-9-13,64,56,48,54,45,41,83,69,50,30.13,30.05,29.97,10,10,10,13,8,20,0.00,4,,345
2013-9-14,70,54,39,50,41,36,89,66,33,30.21,30.16,30.12,10,10,10,6,2,,0.00,0,,82
2013-9-15,75,60,48,54,46,42,89,64,34,30.16,30.11,30.02,10,9,4,10,7,23,0.22,3,Rain,171
2013-9-16,68,60,51,54,52,45,89,80,51,30.34,30.23,30.12,10,6,2,12,5,17,0.01,6,,15
2013-9-17,73,58,45,49,44,41,90,65,35,30.37,30.31,30.21,10,10,8,9,5,,0.01,0,,82
2013-9-18,81,67,55,57,52,49,84,62,35,30.20,30.12,30.04,10,10,9,8,5,,0.00,1,,149
2013-9-19,80,72,64,69,64,60,94,85,62,30.07,30.04,29.96,10,5,1,10,6,,0.11,5,Rain,181
2013-9-20,87,77,68,70,67,64,94,84,49,29.96,29.84,29.76,10,4,0,17,9,31,2.75,6,Fog-Rain-Thunderstorm,218
2013-9-21,72,64,53,65,55,44,94,75,38,29.89,29.77,29.71,10,9,4,14,7,22,0.25,5,Rain,305
2013-9-22,64,56,48,46,43,39,86,66,43,30.06,29.98,29.89,10,10,10,10,6,,0.00,1,,6
2013-9-23,66,52,41,47,43,38,93,72,45,30.16,30.12,30.06,10,10,8,9,3,,0.00,1,,85
2013-9-24,70,56,42,48,44,39,89,72,42,30.14,30.06,29.98,10,8,2,9,5,,0.01,0,,88
2013-9-25,72,61,50,52,49,46,89,71,41,29.99,29.95,29.91,10,8,4,8,4,,0.00,0,,61
2013-9-26,79,62,46,56,48,44,93,75,33,30.12,30.03,29.96,10,6,0,8,4,,0.01,0,Fog,47
2013-9-27,79,63,48,54,48,43,84,65,33,30.21,30.16,30.13,10,10,10,9,5,,0.00,0,,61
2013-9-28,81,66,53,53,50,48,84,60,34,30.19,30.12,30.04,10,10,10,9,6,,0.00,0,,156
2013-9-29,66,62,59,61,58,52,94,82,67,30.05,30.01,29.99,10,7,2,9,7,,0.09,7,Rain,197
2013-9-30,75,68,60,59,58,55,94,82,51,30.03,30.00,29.93,10,6,0,12,3,,0.01,7,Fog,234